Time;durP1;ratioP1;P1;durP2;ratioP2;P2;SDS_P1;SDS_P2;PMS_P1;PMS_P2;Temp;Humidity;BMP_temperature;BMP_pressure;BME280_temperature;BME280_humidity;BME280_pressure;Samples;Min_cycle;Max_cycle;Signal;HPM_P1;HPM_P2
2023/01/29 00:01:49;;;;;;;13.50;9.93;;;;;;;1.53;81.30;99586.16;5112287;28;20512;-73
2023/01/29 00:04:15;;;;;;;17.13;10.52;;;;;;;1.52;81.09;99587.28;5111487;28;20023;-73
2023/01/29 00:06:41;;;;;;;19.95;10.57;;;;;;;1.54;80.48;99591.38;5112331;28;20565;-73
2023/01/29 00:09:06;;;;;;;15.38;11.15;;;;;;;1.57;80.90;99586.44;5112548;28;20119;-73
2023/01/29 00:11:32;;;;;;;17.98;12.30;;;;;;;1.58;80.67;99588.09;5112372;28;20022;-73
2023/01/29 00:13:57;;;;;;;18.70;11.45;;;;;;;1.52;80.02;99588.09;5110719;28;20161;-73
2023/01/29 00:16:23;;;;;;;20.02;12.07;;;;;;;1.57;79.69;99597.47;5110931;28;20031;-73
2023/01/29 00:18:49;;;;;;;20.55;12.48;;;;;;;1.60;80.18;99602.44;5111379;28;20028;-73
2023/01/29 00:21:17;;;;;;;18.60;11.93;;;;;;;1.64;80.10;99604.41;5111963;28;20042;-73
2023/01/29 00:23:43;;;;;;;17.52;10.55;;;;;;;1.63;80.17;99610.16;5110858;28;20517;-73
2023/01/29 00:26:09;;;;;;;19.30;13.13;;;;;;;1.64;80.59;99596.13;5110888;28;20131;-73
2023/01/29 00:28:35;;;;;;;21.10;12.93;;;;;;;1.68;80.08;99601.91;5111571;28;20533;-73
2023/01/29 00:31:12;;;;;;;18.10;12.35;;;;;;;1.62;80.26;99603.81;5110488;28;20067;-73
2023/01/29 00:33:38;;;;;;;17.67;11.65;;;;;;;1.65;79.93;99607.97;5111185;28;20489;-73
2023/01/29 00:36:09;;;;;;;18.38;12.10;;;;;;;1.66;80.32;99609.63;5112216;28;20020;-73
2023/01/29 00:38:35;;;;;;;18.40;12.18;;;;;;;1.68;80.53;99611.00;5111892;28;20405;-73
2023/01/29 00:46:36;;;;;;;17.08;10.07;;;;;;;1.75;79.77;99612.66;5112137;28;20062;-73
2023/01/29 00:49:02;;;;;;;19.10;11.75;;;;;;;1.77;79.52;99619.56;5110672;28;20024;-74
2023/01/29 00:51:28;;;;;;;16.90;11.40;;;;;;;1.78;79.70;99618.47;5111802;28;20102;-74
2023/01/29 00:53:57;;;;;;;18.70;11.30;;;;;;;1.76;80.08;99620.69;5110847;28;20023;-73
2023/01/29 00:56:26;;;;;;;19.20;12.20;;;;;;;1.67;80.76;99611.28;5110063;28;20206;-73
2023/01/29 00:58:52;;;;;;;17.80;11.60;;;;;;;1.74;80.62;99617.38;5111567;28;20102;-74
2023/01/29 01:03:04;;;;;;;20.70;12.35;;;;;;;1.69;80.29;99620.13;5107959;27;20483;-73
2023/01/29 01:04:09;;;;;;;22.17;11.88;;;;;;;1.77;79.69;99622.34;5091219;28;20040;-74
2023/01/29 01:06:39;;;;;;;16.23;11.18;;;;;;;1.89;78.36;99621.25;5091360;28;20403;-73
2023/01/29 01:11:51;;;;;;;17.77;11.93;;;;;;;1.80;79.00;99621.78;5091512;28;20089;-74
2023/01/29 01:14:18;;;;;;;20.00;11.52;;;;;;;1.81;78.94;99628.13;5109108;28;20028;-74
2023/01/29 01:16:45;;;;;;;21.15;12.10;;;;;;;1.75;79.81;99626.47;5110220;28;20030;-74
2023/01/29 01:19:11;;;;;;;19.10;11.25;;;;;;;1.68;79.29;99619.28;5110103;28;20072;-74
2023/01/29 01:21:37;;;;;;;19.98;12.82;;;;;;;1.70;80.01;99632.81;5110538;28;20456;-74
2023/01/29 01:24:04;;;;;;;18.75;11.18;;;;;;;1.70;80.64;99626.47;5109120;28;20027;-74
2023/01/29 01:26:33;;;;;;;20.60;12.40;;;;;;;1.82;80.29;99624.28;5111495;28;20046;-74
2023/01/29 01:28:59;;;;;;;17.95;11.93;;;;;;;1.76;80.49;99625.38;5110087;28;20016;-74
2023/01/29 01:31:24;;;;;;;18.90;11.63;;;;;;;1.86;80.64;99630.09;5109738;28;20046;-74
2023/01/29 01:33:50;;;;;;;21.33;12.45;;;;;;;1.88;80.63;99631.47;5111336;28;20016;-74
2023/01/29 01:36:17;;;;;;;25.95;12.50;;;;;;;1.81;80.19;99623.47;5110112;28;20019;-74
2023/01/29 01:38:45;;;;;;;19.10;12.15;;;;;;;1.74;80.65;99627.56;5110457;28;20081;-74
2023/01/29 01:41:13;;;;;;;23.58;14.32;;;;;;;1.85;80.50;99622.91;5112558;28;20028;-74
2023/01/29 01:44:27;;;;;;;23.27;13.70;;;;;;;1.87;80.08;99621.53;5113935;28;20033;-74
2023/01/29 01:46:53;;;;;;;20.55;13.10;;;;;;;1.92;80.50;99628.97;5108341;28;20079;-74
2023/01/29 01:49:20;;;;;;;20.58;12.90;;;;;;;1.77;80.64;99619.56;5113592;28;20050;-74
2023/01/29 01:51:50;;;;;;;21.45;13.48;;;;;;;1.83;80.96;99623.16;5115256;27;20084;-74
2023/01/29 01:54:23;;;;;;;;;;;;;;;1.85;80.66;99625.66;5114699;28;20098;-74
2023/01/29 01:56:54;;;;;;;23.02;12.57;;;;;;;1.87;80.88;99629.81;5114732;28;19961;-74
2023/01/29 01:59:21;;;;;;;18.85;12.23;;;;;;;1.92;81.05;99634.50;5115060;27;20032;-74
2023/01/29 02:01:52;;;;;;;19.58;11.98;;;;;;;1.84;82.01;99626.78;5114854;28;20530;-74
2023/01/29 02:10:07;;;;;;;20.55;12.75;;;;;;;1.87;81.94;99634.50;5114672;28;20031;-74
2023/01/29 02:12:33;;;;;;;19.85;13.15;;;;;;;1.91;82.23;99630.06;5114606;28;20532;-74
2023/01/29 02:14:59;;;;;;;20.92;12.27;;;;;;;1.74;82.63;99627.56;5113299;28;20028;-74
2023/01/29 02:17:25;;;;;;;20.30;12.68;;;;;;;1.89;82.77;99632.28;5113357;28;20058;-74
2023/01/29 02:20:16;;;;;;;19.33;12.02;;;;;;;1.91;83.30;99636.44;5113322;28;20026;-74
2023/01/29 02:23:22;;;;;;;21.10;13.48;;;;;;;1.95;83.60;99640.28;5112481;28;20023;-74
2023/01/29 02:25:56;;;;;;;20.52;13.65;;;;;;;1.75;84.00;99645.75;5051708;28;20029;-74
2023/01/29 02:28:36;;;;;;;27.60;13.02;;;;;;;1.74;84.05;99644.94;5107112;28;20039;-74
2023/01/29 02:31:17;;;;;;;18.05;12.32;;;;;;;1.68;83.96;99651.53;5113937;28;20062;-74
2023/01/29 02:34:26;;;;;;;22.88;13.63;;;;;;;1.71;84.21;99644.66;5114301;28;20046;-74
2023/01/29 02:37:07;;;;;;;21.88;13.55;;;;;;;1.74;84.01;99655.97;5113145;28;20036;-74
2023/01/29 02:39:38;;;;;;;19.80;11.82;;;;;;;1.75;84.44;99645.75;5114290;28;20085;-74
2023/01/29 02:42:29;;;;;;;20.58;13.35;;;;;;;1.67;84.87;99649.88;5113806;28;20030;-74
2023/01/29 02:45:06;;;;;;;22.92;13.73;;;;;;;1.64;85.30;99655.94;5092281;28;20378;-74
2023/01/29 02:47:39;;;;;;;20.77;13.13;;;;;;;1.62;85.79;99655.41;5093772;28;20034;-74
2023/01/29 02:50:23;;;;;;;24.63;13.75;;;;;;;1.57;85.78;99656.19;5104661;28;20023;-74
2023/01/29 02:53:01;;;;;;;20.08;13.23;;;;;;;1.58;86.35;99660.63;5113055;28;20037;-74
2023/01/29 02:55:34;;;;;;;22.33;13.75;;;;;;;1.59;86.43;99656.75;5112580;28;20023;-74
2023/01/29 02:58:09;;;;;;;22.33;14.95;;;;;;;1.51;86.53;99663.63;5112450;28;20027;-74
2023/01/29 03:00:40;;;;;;;23.02;14.32;;;;;;;1.58;86.80;99668.06;5113883;28;20028;-74
2023/01/29 03:03:13;;;;;;;25.38;14.70;;;;;;;1.43;87.57;99668.84;5100495;28;20030;-74
2023/01/29 03:05:55;;;;;;;21.08;13.45;;;;;;;1.33;88.44;99675.13;5113513;28;20110;-74
2023/01/29 03:08:44;;;;;;;24.80;13.88;;;;;;;1.35;88.00;99675.69;5113504;28;20076;-74
2023/01/29 03:11:12;;;;;;;24.45;14.52;;;;;;;1.30;87.20;99675.66;5113767;28;20456;-74
2023/01/29 03:14:02;;;;;;;19.27;12.43;;;;;;;1.34;85.14;99671.28;5113522;28;20105;-74
2023/01/29 03:16:39;;;;;;;19.90;11.00;;;;;;;1.54;82.19;99671.34;5112334;28;20122;-74
2023/01/29 03:19:11;;;;;;;16.92;11.43;;;;;;;1.49;82.06;99671.34;5112540;28;20079;-74
2023/01/29 03:21:58;;;;;;;21.17;11.32;;;;;;;1.54;81.74;99679.63;5111013;28;20055;-73
2023/01/29 03:32:59;;;;;;;19.95;12.10;;;;;;;1.41;83.86;99693.91;5110181;28;20089;-73
2023/01/29 03:35:36;;;;;;;19.88;11.98;;;;;;;1.39;85.37;99687.84;5112153;28;20044;-73
2023/01/29 03:38:08;;;;;;;20.52;12.35;;;;;;;1.39;85.58;99698.88;5113117;28;20115;-73
2023/01/29 03:40:49;;;;;;;20.85;13.13;;;;;;;1.33;86.69;99699.94;5112986;28;20440;-73
2023/01/29 03:43:43;;;;;;;19.10;12.00;;;;;;;1.27;87.43;99690.81;5112715;28;20055;-74
2023/01/29 03:46:38;;;;;;;20.23;12.13;;;;;;;1.32;87.59;99695.50;5112714;28;20104;-74
2023/01/29 03:49:29;;;;;;;20.17;12.30;;;;;;;1.30;87.53;99703.22;5099464;28;20036;-74
2023/01/29 03:51:58;;;;;;;22.77;13.57;;;;;;;1.33;87.56;99698.00;5108899;28;20070;-74
2023/01/29 03:54:51;;;;;;;22.80;13.70;;;;;;;1.38;87.36;99700.78;5112790;28;20030;-74
2023/01/29 03:57:28;;;;;;;20.58;12.98;;;;;;;1.34;87.34;99704.38;5111493;28;20028;-74
2023/01/29 03:59:58;;;;;;;23.58;14.02;;;;;;;1.37;87.71;99710.16;5112519;28;20031;-74
2023/01/29 04:02:29;;;;;;;22.42;13.77;;;;;;;1.29;88.20;99710.66;5112099;28;20059;-74
2023/01/29 04:05:04;;;;;;;21.20;13.30;;;;;;;1.24;88.64;99714.22;5111377;28;20037;-74
2023/01/29 04:07:32;;;;;;;24.83;15.15;;;;;;;1.20;89.00;99709.50;5109800;28;20051;-74
2023/01/29 04:10:20;;;;;;;23.92;14.10;;;;;;;1.20;89.32;99723.28;5111081;28;20543;-74
2023/01/29 04:12:55;;;;;;;22.05;13.77;;;;;;;1.18;89.56;99717.22;5112466;28;20034;-74
2023/01/29 04:15:22;;;;;;;26.23;15.38;;;;;;;1.30;90.04;99715.09;5109678;28;20081;-74
2023/01/29 04:17:52;;;;;;;25.58;14.98;;;;;;;1.39;89.55;99719.00;5111087;28;20031;-74
2023/01/29 04:20:19;;;;;;;23.87;13.87;;;;;;;1.50;89.18;99727.28;5110048;28;20030;-74
2023/01/29 04:22:48;;;;;;;24.50;14.95;;;;;;;1.56;88.70;99729.00;5111010;28;20023;-74
2023/01/29 04:25:27;;;;;;;21.75;13.80;;;;;;;1.58;88.09;99723.22;5112215;28;20084;-74
2023/01/29 04:28:25;;;;;;;27.92;14.63;;;;;;;1.56;88.35;99734.50;5112019;28;20054;-74
2023/01/29 04:30:50;;;;;;;24.65;14.00;;;;;;;1.63;87.94;99728.75;5111859;28;20058;-74
2023/01/29 04:33:42;;;;;;;27.80;15.23;;;;;;;1.84;87.28;99723.31;5111849;28;20036;-74
2023/01/29 04:36:13;;;;;;;25.85;14.82;;;;;;;1.74;86.78;99732.38;5110978;27;20024;-74
2023/01/29 04:38:56;;;;;;;26.52;15.15;;;;;;;1.85;86.64;99727.72;5110727;28;20031;-74
2023/01/29 04:41:31;;;;;;;22.33;13.98;;;;;;;2.04;84.95;99733.59;5111388;28;20024;-74
2023/01/29 04:44:17;;;;;;;25.25;14.30;;;;;;;2.18;84.02;99734.72;5091525;28;20089;-74
2023/01/29 04:47:06;;;;;;;20.60;13.68;;;;;;;2.09;84.25;99733.59;5101251;28;20088;-74
2023/01/29 04:49:44;;;;;;;26.65;14.98;;;;;;;2.01;84.15;99734.13;5111975;28;20106;-74
2023/01/29 04:52:31;;;;;;;22.80;14.52;;;;;;;2.07;84.42;99736.63;5111741;28;20027;-74
2023/01/29 04:55:19;;;;;;;26.15;14.55;;;;;;;2.16;83.63;99733.31;5109636;28;20034;-74
2023/01/29 04:57:45;;;;;;;24.17;13.88;;;;;;;2.34;83.32;99741.09;5110376;28;20031;-74
2023/01/29 05:00:34;;;;;;;36.13;20.23;;;;;;;2.07;83.97;99731.13;5106777;28;20032;-74
2023/01/29 05:03:00;;;;;;;36.25;21.27;;;;;;;2.18;84.42;99743.00;5110869;28;20028;-74
2023/01/29 05:05:27;;;;;;;32.67;17.33;;;;;;;2.11;84.36;99739.66;5107677;28;20031;-74
2023/01/29 05:07:56;;;;;;;43.45;22.40;;;;;;;2.24;83.61;99741.94;5102399;28;20115;-74
2023/01/29 05:10:23;;;;;;;37.13;21.40;;;;;;;2.12;83.77;99738.59;5110261;28;20037;-74
2023/01/29 05:12:57;;;;;;;44.33;23.60;;;;;;;2.14;84.15;99741.06;5110415;28;20020;-74
2023/01/29 05:15:29;;;;;;;33.90;18.23;;;;;;;1.97;84.06;99742.13;5112204;28;20095;-74
2023/01/29 05:18:00;;;;;;;28.48;16.30;;;;;;;2.06;84.23;99746.03;5115942;28;20081;-74
2023/01/29 05:20:26;;;;;;;21.35;13.43;;;;;;;2.07;83.95;99746.84;5114418;28;20027;-74
2023/01/29 05:22:52;;;;;;;24.75;14.73;;;;;;;2.08;83.57;99754.00;5115539;28;20081;-74
2023/01/29 05:25:29;;;;;;;25.63;15.65;;;;;;;1.95;84.33;99755.38;5099698;28;20486;-74
2023/01/29 05:28:05;;;;;;;24.48;15.63;;;;;;;1.97;84.03;99758.69;5097065;28;20467;-74
2023/01/29 05:30:35;;;;;;;23.90;15.23;;;;;;;1.82;84.49;99757.53;5112102;28;20099;-74
2023/01/29 05:33:01;;;;;;;22.45;14.40;;;;;;;1.72;85.17;99763.00;5115155;28;20032;-74
2023/01/29 05:35:28;;;;;;;28.45;18.20;;;;;;;1.70;85.51;99759.69;5114930;27;20035;-74
2023/01/29 05:37:55;;;;;;;31.45;18.30;;;;;;;1.81;85.41;99764.16;5107976;28;20402;-74
2023/01/29 05:40:22;;;;;;;26.58;16.83;;;;;;;1.78;85.34;99761.91;5114782;28;20034;-74
2023/01/29 05:42:49;;;;;;;26.10;15.88;;;;;;;1.89;85.16;99762.78;5110615;28;20028;-74
2023/01/29 05:45:15;;;;;;;26.25;16.77;;;;;;;2.07;84.89;99769.75;5109962;28;20024;-74
2023/01/29 05:47:41;;;;;;;24.35;15.32;;;;;;;2.10;83.99;99774.72;5114556;28;20133;-74
2023/01/29 05:50:07;;;;;;;28.83;19.00;;;;;;;2.05;83.98;99773.88;5106324;28;20015;-74
2023/01/29 05:52:32;;;;;;;36.13;22.70;;;;;;;1.93;84.04;99780.47;5104727;28;20030;-74
2023/01/29 05:54:58;;;;;;;40.40;23.00;;;;;;;1.99;84.52;99780.47;5112988;28;20020;-74
2023/01/29 05:57:23;;;;;;;42.95;19.38;;;;;;;2.07;84.51;99786.31;5112097;28;20015;-74
2023/01/29 05:59:49;;;;;;;39.20;22.40;;;;;;;2.15;84.17;99784.09;5112535;28;20023;-76
2023/01/29 06:02:14;;;;;;;43.75;22.48;;;;;;;2.12;83.81;99790.19;5113159;28;20024;-75
2023/01/29 06:04:39;;;;;;;54.75;28.30;;;;;;;2.21;83.45;99791.31;5114884;28;20027;-74
2023/01/29 06:07:05;;;;;;;43.00;22.00;;;;;;;2.06;83.20;99792.94;5112464;28;20019;-75
2023/01/29 06:09:30;;;;;;;41.83;21.92;;;;;;;1.86;84.68;99790.09;5112487;28;20049;-74
2023/01/29 06:11:56;;;;;;;47.67;22.90;;;;;;;1.75;85.31;99794.69;5114664;28;20027;-76
2023/01/29 06:14:21;;;;;;;34.45;19.02;;;;;;;1.68;86.40;99795.78;5114782;28;20490;-76
2023/01/29 06:16:47;;;;;;;33.85;18.38;;;;;;;1.61;86.89;99797.13;5113200;28;20093;-76
2023/01/29 06:19:12;;;;;;;24.92;15.13;;;;;;;1.57;86.06;99796.00;5108447;28;20046;-76
2023/01/29 06:21:38;;;;;;;23.85;13.48;;;;;;;1.51;86.59;99795.97;5112709;28;20128;-75
2023/01/29 06:24:03;;;;;;;18.35;11.13;;;;;;;1.51;86.65;99811.69;5113060;28;20099;-75
2023/01/29 06:26:29;;;;;;;17.17;11.13;;;;;;;1.46;87.09;99815.25;5113561;28;20486;-75
2023/01/29 06:28:54;;;;;;;18.27;11.73;;;;;;;1.51;87.04;99809.75;5111823;28;20039;-75
2023/01/29 06:31:20;;;;;;;19.85;13.10;;;;;;;1.56;86.93;99814.47;5110645;28;20420;-76
2023/01/29 06:33:45;;;;;;;21.27;13.90;;;;;;;1.61;87.23;99811.72;5108415;28;20063;-74
2023/01/29 06:36:11;;;;;;;24.83;14.82;;;;;;;1.78;86.40;99832.81;5112082;28;20681;-75
2023/01/29 06:38:36;;;;;;;24.30;16.10;;;;;;;1.65;86.34;99828.59;5102465;27;20468;-76
2023/01/29 06:41:14;;;;;;;33.13;19.25;;;;;;;1.71;87.00;99841.31;5109553;28;20056;-75
2023/01/29 06:43:43;;;;;;;23.83;14.35;;;;;;;1.72;86.76;99840.22;5110535;28;20027;-73
2023/01/29 06:46:08;;;;;;;18.17;11.23;;;;;;;1.78;86.25;99833.63;5111548;28;20063;-73
2023/01/29 06:48:34;;;;;;;19.95;12.73;;;;;;;1.79;86.65;99840.78;5113869;28;20054;-77
2023/01/29 06:51:05;;;;;;;13.27;8.82;;;;;;;1.78;84.63;99839.13;5101779;27;20114;-75
2023/01/29 06:53:32;;;;;;;16.88;10.48;;;;;;;1.92;85.01;99841.41;5106781;28;20024;-73
2023/01/29 06:55:58;;;;;;;14.82;10.35;;;;;;;1.85;84.82;99844.41;5111491;28;20551;-72
2023/01/29 06:58:23;;;;;;;19.58;10.30;;;;;;;1.86;84.83;99856.28;5109363;28;20027;-73
2023/01/29 07:00:49;;;;;;;34.67;15.27;;;;;;;1.80;85.21;99850.72;5103159;28;20093;-72
2023/01/29 07:03:14;;;;;;;19.20;10.05;;;;;;;1.81;85.85;99849.66;5109360;28;20031;-73
2023/01/29 07:05:40;;;;;;;23.42;14.38;;;;;;;1.89;85.45;99858.50;5104486;28;20020;-74
2023/01/29 07:08:05;;;;;;;21.77;13.15;;;;;;;1.91;85.23;99859.06;5101979;27;20035;-73
2023/01/29 07:10:31;;;;;;;18.08;10.90;;;;;;;1.93;85.70;99868.75;5091245;28;20065;-72
2023/01/29 07:12:58;;;;;;;18.48;12.73;;;;;;;1.89;86.78;99856.59;5090714;28;20024;-72
2023/01/29 07:15:23;;;;;;;23.67;15.25;;;;;;;1.93;86.98;99868.75;5090728;28;20020;-74
2023/01/29 07:18:15;;;;;;;17.50;11.90;;;;;;;1.83;86.94;99874.19;5090596;28;20031;-76
2023/01/29 07:20:41;;;;;;;21.20;12.32;;;;;;;1.94;87.35;99873.16;5090306;28;20032;-78
2023/01/29 07:23:12;;;;;;;22.25;12.93;;;;;;;1.93;87.99;99868.75;5092538;28;20021;-77
2023/01/29 07:25:38;;;;;;;24.05;14.23;;;;;;;1.87;88.57;99867.06;5092380;28;20494;-78
2023/01/29 07:28:04;;;;;;;29.10;16.85;;;;;;;1.91;88.23;99862.66;5092193;28;20559;-78
2023/01/29 07:30:30;;;;;;;28.65;16.60;;;;;;;2.01;89.08;99872.91;5092137;28;20054;-77
2023/01/29 07:33:02;;;;;;;26.30;16.05;;;;;;;1.93;88.96;99874.25;5090860;28;20023;-76
2023/01/29 07:35:29;;;;;;;16.77;11.25;;;;;;;1.86;89.19;99883.88;5092215;28;20016;-78
2023/01/29 07:37:54;;;;;;;25.95;13.98;;;;;;;1.97;89.89;99882.84;5091124;28;20036;-78
2023/01/29 07:40:20;;;;;;;25.05;14.02;;;;;;;1.92;89.95;99885.56;5091502;28;20031;-78
2023/01/29 07:42:45;;;;;;;25.50;14.60;;;;;;;1.91;91.28;99886.66;5092639;28;20557;-77
2023/01/29 07:45:11;;;;;;;35.53;19.27;;;;;;;1.95;91.30;99880.34;5092714;28;20375;-77
2023/01/29 07:47:37;;;;;;;32.10;18.58;;;;;;;1.76;92.51;99879.13;5092477;28;20055;-78
2023/01/29 07:50:05;;;;;;;17.70;11.75;;;;;;;1.66;93.09;99885.41;5092538;28;20068;-78
2023/01/29 07:52:32;;;;;;;18.48;10.98;;;;;;;1.60;93.20;99884.53;5091178;28;20020;-76
2023/01/29 07:54:58;;;;;;;27.95;16.92;;;;;;;1.65;94.36;99883.75;5091135;28;20420;-78
2023/01/29 07:57:24;;;;;;;23.60;15.60;;;;;;;1.71;95.10;99888.22;5092401;28;20082;-78
2023/01/29 07:59:49;;;;;;;28.13;16.60;;;;;;;1.71;95.41;99888.22;5090963;28;20081;-78
2023/01/29 08:02:16;;;;;;;22.35;13.32;;;;;;;1.87;94.99;99885.53;5091067;28;20016;-78
2023/01/29 08:04:41;;;;;;;21.83;14.43;;;;;;;1.68;95.59;99897.00;5090659;28;20020;-77
2023/01/29 08:07:08;;;;;;;28.05;16.48;;;;;;;1.84;96.06;99888.84;5092350;28;20035;-78
2023/01/29 08:09:34;;;;;;;24.13;14.45;;;;;;;1.86;96.10;99900.44;5090794;28;20030;-78
2023/01/29 08:11:59;;;;;;;30.15;16.95;;;;;;;1.67;97.03;99887.06;5090822;28;20024;-78
2023/01/29 08:14:25;;;;;;;34.67;17.73;;;;;;;1.89;97.49;99894.38;5092123;28;20482;-78
2023/01/29 08:16:50;;;;;;;53.28;26.98;;;;;;;2.03;96.72;99895.56;5090834;28;20494;-78
2023/01/29 08:19:16;;;;;;;51.85;29.02;;;;;;;2.12;96.40;99892.28;5090628;28;20024;-78
2023/01/29 08:21:42;;;;;;;43.65;24.48;;;;;;;2.15;96.31;99900.03;5091844;28;20085;-78
2023/01/29 08:24:07;;;;;;;28.50;16.35;;;;;;;1.95;96.29;99891.38;5091561;28;20089;-78
2023/01/29 08:26:33;;;;;;;28.38;17.13;;;;;;;2.05;95.42;99898.06;5091917;28;20042;-78
2023/01/29 08:28:58;;;;;;;31.17;17.90;;;;;;;2.21;95.48;99899.78;5090304;28;20423;-78
2023/01/29 08:31:24;;;;;;;34.20;18.98;;;;;;;2.21;96.55;99893.44;5091720;28;20535;-78
2023/01/29 08:33:49;;;;;;;51.67;24.00;;;;;;;2.23;96.12;99892.09;5091750;28;20099;-77
2023/01/29 08:36:15;;;;;;;31.48;16.05;;;;;;;2.32;95.52;99903.44;5095674;28;20027;-78
2023/01/29 08:38:41;;;;;;;34.15;16.08;;;;;;;2.30;94.69;99908.41;5098466;28;20430;-77
2023/01/29 08:41:07;;;;;;;34.90;19.20;;;;;;;2.43;94.31;99909.81;5106790;28;20031;-78
2023/01/29 08:43:35;;;;;;;59.22;25.70;;;;;;;2.39;94.47;99909.53;5111881;28;20030;-78
2023/01/29 08:46:03;;;;;;;33.70;15.48;;;;;;;2.33;94.53;99916.16;5111809;28;20024;-77
2023/01/29 08:48:29;;;;;;;39.90;19.98;;;;;;;2.23;96.11;99927.13;5110387;28;20023;-78
2023/01/29 08:50:57;;;;;;;35.42;18.92;;;;;;;2.20;95.25;99919.41;5110516;28;20039;-78
2023/01/29 08:53:23;;;;;;;43.05;21.15;;;;;;;2.20;95.79;99924.91;5111788;28;20028;-78
2023/01/29 08:55:49;;;;;;;29.60;16.92;;;;;;;2.35;94.76;99930.50;5110290;28;20028;-78
2023/01/29 08:58:14;;;;;;;20.13;13.95;;;;;;;2.54;92.63;99930.03;5110396;28;20027;-78
2023/01/29 09:00:40;;;;;;;26.48;16.15;;;;;;;2.41;93.11;99916.72;5110398;28;20019;-78
2023/01/29 09:03:06;;;;;;;19.83;12.63;;;;;;;2.53;92.15;99926.44;5111839;28;20023;-78
2023/01/29 09:05:33;;;;;;;17.67;11.73;;;;;;;2.61;91.61;99918.75;5111574;28;20027;-78
2023/01/29 09:07:59;;;;;;;21.42;12.45;;;;;;;2.68;91.76;99922.06;5111756;28;20050;-78
2023/01/29 09:10:25;;;;;;;30.77;17.17;;;;;;;2.86;92.25;99920.75;5110394;28;20502;-78
2023/01/29 09:12:51;;;;;;;20.67;12.50;;;;;;;2.69;90.99;99923.72;5111934;28;20401;-78
2023/01/29 09:15:16;;;;;;;19.40;12.65;;;;;;;2.76;91.37;99927.06;5110524;28;20020;-78
2023/01/29 09:17:42;;;;;;;27.45;13.52;;;;;;;2.69;91.47;99918.19;5110562;28;20501;-77
2023/01/29 09:20:08;;;;;;;26.42;16.05;;;;;;;2.84;92.11;99913.84;5111780;28;20088;-78
2023/01/29 09:22:35;;;;;;;19.30;13.07;;;;;;;2.87;90.09;99902.25;5111563;28;20047;-78
2023/01/29 09:25:01;;;;;;;17.58;10.65;;;;;;;3.01;89.63;99908.91;5110383;28;20023;-78
2023/01/29 09:27:26;;;;;;;16.50;11.38;;;;;;;2.90;89.01;99913.59;5110400;28;20480;-78
2023/01/29 09:29:52;;;;;;;21.15;12.98;;;;;;;2.97;89.38;99915.25;5110177;28;20051;-78
2023/01/29 09:32:18;;;;;;;18.73;12.88;;;;;;;2.93;89.88;99915.78;5111890;28;20050;-78
2023/01/29 09:34:43;;;;;;;19.60;12.65;;;;;;;3.03;91.00;99906.69;5111544;28;20016;-78
2023/01/29 09:37:09;;;;;;;20.98;14.13;;;;;;;3.09;90.12;99910.28;5110449;28;20034;-78
2023/01/29 09:39:34;;;;;;;19.80;12.80;;;;;;;3.11;88.95;99919.13;5111645;28;20464;-78
2023/01/29 09:42:21;;;;;;;26.10;15.73;;;;;;;3.30;89.35;99910.31;5107734;28;20463;-78
2023/01/29 09:45:12;;;;;;;21.88;14.07;;;;;;;3.12;89.54;99903.38;5109958;28;20073;-78
2023/01/29 09:47:37;;;;;;;26.63;16.55;;;;;;;3.13;90.17;99894.00;5111769;28;20050;-78
2023/01/29 09:50:12;;;;;;;26.65;16.65;;;;;;;3.04;89.24;99893.72;5111468;28;20023;-77
2023/01/29 09:52:45;;;;;;;22.33;13.38;;;;;;;3.18;87.86;99889.28;5111545;28;20031;-78
2023/01/29 09:55:26;;;;;;;18.25;11.88;;;;;;;3.27;87.86;99889.56;5110182;28;20026;-78
2023/01/29 09:58:09;;;;;;;25.83;13.27;;;;;;;3.38;87.33;99884.88;5111561;28;20048;-78
2023/01/29 10:00:50;;;;;;;28.15;18.42;;;;;;;3.30;88.03;99885.44;5111564;28;20528;-78
2023/01/29 10:04:03;;;;;;;28.23;15.52;;;;;;;3.57;85.79;99887.91;5115157;28;20024;-78
2023/01/29 10:06:59;;;;;;;21.75;14.50;;;;;;;3.65;85.86;99878.22;5041925;28;20152;-78
2023/01/29 10:09:31;;;;;;;20.55;13.10;;;;;;;3.54;86.15;99884.88;5113541;28;20123;-78
2023/01/29 10:12:31;;;;;;;21.77;12.35;;;;;;;3.59;85.54;99871.88;5114819;28;20020;-78
2023/01/29 10:15:16;;;;;;;17.58;11.68;;;;;;;3.68;85.10;99871.28;5114815;28;20026;-78
2023/01/29 10:17:54;;;;;;;36.60;15.13;;;;;;;3.86;84.76;99880.94;5113445;28;20030;-78
2023/01/29 10:20:28;;;;;;;22.08;14.98;;;;;;;3.91;82.51;99873.44;5113390;28;20070;-78
2023/01/29 10:23:26;;;;;;;22.73;15.80;;;;;;;3.88;81.92;99859.38;5113326;28;20025;-78
2023/01/29 10:25:52;;;;;;;26.80;16.17;;;;;;;3.97;82.31;99865.16;5112196;28;20038;-78
2023/01/29 10:28:42;;;;;;;14.70;10.00;;;;;;;3.97;81.75;99860.44;5114600;28;20020;-77
2023/01/29 10:31:31;;;;;;;31.70;14.10;;;;;;;4.07;80.56;99857.63;5114261;28;20078;-78
2023/01/29 10:34:06;;;;;;;25.75;11.10;;;;;;;4.15;80.00;99856.22;5113044;28;20028;-77
2023/01/29 10:36:41;;;;;;;21.13;12.52;;;;;;;4.12;80.51;99847.66;5114408;28;20023;-78
2023/01/29 10:39:19;;;;;;;15.73;10.45;;;;;;;4.18;80.34;99850.13;5114339;28;20088;-78
2023/01/29 10:42:08;;;;;;;12.23;8.77;;;;;;;4.18;79.01;99850.13;5112924;28;20016;-78
2023/01/29 10:45:04;;;;;;;15.93;11.07;;;;;;;4.31;77.74;99840.38;5098559;28;20031;-78
2023/01/29 10:47:32;;;;;;;13.15;9.48;;;;;;;4.22;78.68;99834.59;5112947;28;20027;-78
2023/01/29 10:50:24;;;;;;;20.38;12.07;;;;;;;4.32;78.67;99830.13;5114051;28;20020;-78
2023/01/29 10:53:20;;;;;;;20.30;12.77;;;;;;;4.37;77.00;99826.50;5114149;28;20019;-77
2023/01/29 10:55:49;;;;;;;21.35;13.43;;;;;;;4.35;76.42;99824.84;5111149;28;20024;-78
2023/01/29 10:58:20;;;;;;;18.08;11.80;;;;;;;4.47;75.30;99826.47;5113931;28;20020;-78
2023/01/29 11:00:46;;;;;;;13.02;9.77;;;;;;;4.35;76.21;99810.16;5112566;28;20034;-78
2023/01/29 11:03:14;;;;;;;17.15;11.05;;;;;;;4.40;75.84;99818.44;5113881;28;20457;-78
2023/01/29 11:06:17;;;;;;;23.35;13.93;;;;;;;4.56;75.64;99818.38;5112452;28;20016;-78
2023/01/29 11:08:55;;;;;;;20.05;11.13;;;;;;;4.74;75.22;99809.38;5113799;28;20513;-78
2023/01/29 11:11:30;;;;;;;24.23;13.57;;;;;;;4.73;75.23;99798.59;5113670;28;20026;-78
2023/01/29 11:14:22;;;;;;;23.05;13.48;;;;;;;4.94;74.32;99807.56;5107279;28;20031;-73
2023/01/29 11:16:47;;;;;;;28.50;16.38;;;;;;;4.88;73.79;99798.47;5104657;28;20502;-72
2023/01/29 11:19:14;;;;;;;23.73;16.42;;;;;;;4.84;74.31;99808.50;5113228;28;20038;-73
2023/01/29 11:21:58;;;;;;;18.55;11.90;;;;;;;4.74;73.28;99803.81;5106698;27;20055;-72
2023/01/29 11:24:24;;;;;;;28.48;12.15;;;;;;;4.50;70.29;99803.72;5111206;28;20032;-73
2023/01/29 11:26:53;;;;;;;22.85;12.68;;;;;;;4.46;71.98;99786.84;5112249;28;20028;-74
2023/01/29 11:29:40;;;;;;;13.90;9.55;;;;;;;4.35;70.13;99790.78;5112948;28;20027;-73
2023/01/29 11:32:32;;;;;;;27.25;14.65;;;;;;;4.44;71.50;99777.16;5110996;28;20524;-75
2023/01/29 11:35:02;;;;;;;30.50;16.75;;;;;;;4.50;70.80;99781.56;5111320;27;20027;-73
2023/01/29 11:37:39;;;;;;;41.42;18.13;;;;;;;4.46;70.40;99772.16;5111418;28;20030;-74
2023/01/29 11:40:17;;;;;;;62.40;26.70;;;;;;;4.48;68.88;99778.25;5113139;28;20024;-73
2023/01/29 11:42:42;;;;;;;20.67;12.50;;;;;;;4.60;70.18;99764.03;5113006;28;20027;-73
2023/01/29 11:45:28;;;;;;;17.73;11.35;;;;;;;4.82;68.70;99766.34;5111796;28;20489;-74
2023/01/29 11:47:55;;;;;;;16.33;11.23;;;;;;;4.86;68.51;99756.34;5109633;28;20078;-73
2023/01/29 11:50:26;;;;;;;18.30;11.55;;;;;;;4.83;68.32;99767.19;5113331;28;20032;-74
2023/01/29 11:52:53;;;;;;;38.63;16.63;;;;;;;4.80;68.21;99763.03;5109237;28;20327;-73
2023/01/29 11:55:30;;;;;;;13.80;9.07;;;;;;;4.84;67.50;99763.31;5109145;28;20486;-72
2023/01/29 11:58:13;;;;;;;22.15;12.13;;;;;;;4.95;67.30;99755.72;5109264;28;20028;-73
2023/01/29 12:00:40;;;;;;;23.48;12.27;;;;;;;5.14;66.89;99759.44;5109142;28;20031;-73
2023/01/29 12:03:27;;;;;;;19.30;12.48;;;;;;;5.36;66.79;99749.81;5106529;28;20491;-73
2023/01/29 12:05:58;;;;;;;28.10;13.55;;;;;;;5.07;66.33;99753.41;5107881;28;20421;-75
2023/01/29 12:08:24;;;;;;;14.32;8.93;;;;;;;5.06;65.88;99743.41;5107954;28;20529;-73
2023/01/29 12:10:50;;;;;;;23.52;12.05;;;;;;;5.02;66.59;99742.34;5109266;28;20512;-76
2023/01/29 12:13:27;;;;;;;31.45;17.08;;;;;;;5.12;69.63;99742.28;5110215;28;20023;-75